createdAt,value
2022-09-07T00:09:10.127Z,20.83
2022-09-07T00:19:10.285Z,20.47
2022-09-07T00:29:10.444Z,20.18
2022-09-07T00:39:10.602Z,20.33
2022-09-07T00:49:10.981Z,20.34
2022-09-07T00:59:10.939Z,20.28
2022-09-07T01:09:11.110Z,19.36
2022-09-07T01:19:11.274Z,19.10
2022-09-07T01:29:11.427Z,19.46
2022-09-07T01:39:11.585Z,20.18
2022-09-07T01:49:11.747Z,20.38
2022-09-07T01:59:11.920Z,20.54
2022-09-07T02:09:12.091Z,21.29
2022-09-07T02:19:12.251Z,20.49
2022-09-07T02:29:12.531Z,19.94
2022-09-07T02:39:12.597Z,20.09
2022-09-07T02:49:12.749Z,20.42
2022-09-07T02:59:12.917Z,20.38
2022-09-07T03:09:13.105Z,20.34
2022-09-07T03:19:13.261Z,20.31
2022-09-07T03:29:13.418Z,20.51
2022-09-07T03:39:13.563Z,20.28
2022-09-07T03:49:13.756Z,19.50
2022-09-07T03:59:13.927Z,19.13
2022-09-07T04:09:14.390Z,19.31
2022-09-07T04:19:14.226Z,19.29
2022-09-07T04:29:14.374Z,19.10
2022-09-07T04:39:14.530Z,19.01
2022-09-07T04:49:14.686Z,18.64
2022-09-07T04:59:14.860Z,18.33
2022-09-07T05:09:15.034Z,18.24
2022-09-07T05:19:15.201Z,18.19
2022-09-07T05:39:16.565Z,17.88
2022-09-07T05:49:15.722Z,17.84
2022-09-07T05:59:15.897Z,17.97
2022-09-07T06:09:16.074Z,18.68
2022-09-07T06:19:16.226Z,19.15
2022-09-07T06:29:16.441Z,19.21
2022-09-07T06:39:16.503Z,19.40
2022-09-07T06:49:16.674Z,19.60
2022-09-07T06:59:16.852Z,20.34
2022-09-07T07:09:17.029Z,20.76
2022-09-07T07:19:17.199Z,20.74
2022-09-07T07:29:19.050Z,20.34
2022-09-07T07:49:18.631Z,20.99
2022-09-07T07:59:17.832Z,21.36
2022-09-07T08:09:17.987Z,22.13
2022-09-07T08:19:18.177Z,22.69
2022-09-07T08:29:18.323Z,23.29
2022-09-07T08:39:18.512Z,23.83
2022-09-07T08:49:18.753Z,23.90
2022-09-07T08:59:18.844Z,24.42
2022-09-07T09:09:19.006Z,24.97
2022-09-07T09:19:19.192Z,26.25
2022-09-07T09:29:19.321Z,25.42
2022-09-07T09:39:19.502Z,25.00
2022-09-07T09:49:19.629Z,24.98
2022-09-07T10:09:20.963Z,26.02
2022-09-07T10:19:20.412Z,26.91
2022-09-07T10:29:20.316Z,27.64
2022-09-07T10:39:20.504Z,28.88
2022-09-07T10:49:20.743Z,27.59
2022-09-07T10:59:20.905Z,27.20
2022-09-07T11:09:21.381Z,27.54
2022-09-07T11:19:37.750Z,27.41
2022-09-07T11:29:29.808Z,27.85
2022-09-07T11:39:22.429Z,28.19
2022-09-07T11:49:21.565Z,28.40
2022-09-07T11:59:21.758Z,28.43
2022-09-07T12:09:21.938Z,27.88
2022-09-07T12:19:22.141Z,28.77
2022-09-07T12:29:22.460Z,29.35
2022-09-07T12:39:22.497Z,28.90
2022-09-07T12:49:22.540Z,29.60
2022-09-07T12:59:22.769Z,28.46
2022-09-07T13:09:22.922Z,28.95
2022-09-07T13:19:23.161Z,29.00
2022-09-07T13:29:24.108Z,28.32
2022-09-07T13:39:23.460Z,30.38
2022-09-07T13:49:23.596Z,30.89
2022-09-07T13:59:24.067Z,29.41
2022-09-07T14:09:23.880Z,30.52
2022-09-07T14:19:24.296Z,30.54
2022-09-07T14:29:24.274Z,29.53
2022-09-07T14:39:24.495Z,30.09
2022-09-07T14:49:24.655Z,28.97
2022-09-07T14:59:24.863Z,29.38
2022-09-07T15:09:25.420Z,28.36
2022-09-07T15:19:25.189Z,29.29
2022-09-07T15:29:28.555Z,28.60
2022-09-07T15:39:25.785Z,27.73
2022-09-07T15:49:26.840Z,27.77
2022-09-07T15:59:25.862Z,27.57
2022-09-07T16:09:26.011Z,27.69
2022-09-07T16:19:26.205Z,28.84
2022-09-07T16:29:26.357Z,29.00
2022-09-07T16:39:26.754Z,27.09
2022-09-07T16:49:26.925Z,26.57
2022-09-07T16:59:26.924Z,25.84
2022-09-07T17:09:27.078Z,25.12
2022-09-07T17:19:30.661Z,24.50
2022-09-07T17:29:27.733Z,23.90
2022-09-07T17:39:27.655Z,23.32
2022-09-07T17:49:27.739Z,23.20
2022-09-07T18:09:31.918Z,23.02
2022-09-07T18:19:28.490Z,21.92
2022-09-07T18:29:32.871Z,21.75
2022-09-07T18:39:28.764Z,21.72
2022-09-07T18:49:28.746Z,22.23
2022-09-07T18:59:29.867Z,20.76
2022-09-07T19:09:29.088Z,19.69
2022-09-07T19:19:29.271Z,19.33
2022-09-07T19:29:29.407Z,19.38
2022-09-07T19:39:29.680Z,19.47
2022-09-07T19:49:29.770Z,19.14
2022-09-07T19:59:30.090Z,19.05
2022-09-07T20:09:30.113Z,19.10
2022-09-07T20:19:30.293Z,19.05
2022-09-07T20:29:30.414Z,19.21
2022-09-07T20:39:32.739Z,19.11
2022-09-07T20:49:30.713Z,18.82
2022-09-07T20:59:30.906Z,18.72
2022-09-07T21:09:30.983Z,18.65
2022-09-07T21:19:31.261Z,18.54
2022-09-07T21:29:31.290Z,18.61
2022-09-07T21:39:31.542Z,18.74
2022-09-07T21:49:31.594Z,18.77
2022-09-07T21:59:31.787Z,18.77
2022-09-07T22:09:31.940Z,18.80
2022-09-07T22:19:32.115Z,19.33
2022-09-07T22:29:32.259Z,18.86
2022-09-07T22:39:32.563Z,18.52
2022-09-07T22:49:32.692Z,18.46
2022-09-07T22:59:32.780Z,18.42
2022-09-07T23:09:32.931Z,18.44
2022-09-07T23:19:33.158Z,18.43
2022-09-07T23:29:33.295Z,18.36
2022-09-07T23:39:33.499Z,18.36
2022-09-07T23:49:33.642Z,18.28
2022-09-07T23:59:33.870Z,18.70
